createdAt,value
2019-05-16T00:01:48.825Z,100628.95
2019-05-16T00:04:21.388Z,100622.88
2019-05-16T00:06:53.966Z,100616.80
2019-05-16T00:09:28.570Z,100620.81
2019-05-16T00:12:00.862Z,100614.20
2019-05-16T00:14:33.549Z,100617.31
2019-05-16T00:17:08.188Z,100613.86
2019-05-16T00:19:40.441Z,100611.75
2019-05-16T00:22:13.328Z,100602.30
2019-05-16T00:24:46.001Z,100599.67
2019-05-16T00:27:18.723Z,100595.78
2019-05-16T00:29:51.353Z,100587.16
2019-05-16T00:32:24.137Z,100584.06
2019-05-16T00:34:58.418Z,100581.91
2019-05-16T00:37:31.446Z,100578.47
2019-05-16T00:40:08.233Z,100579.03
2019-05-16T00:42:40.825Z,100582.20
2019-05-16T00:45:13.784Z,100577.38
2019-05-16T00:47:47.964Z,100575.65
2019-05-16T00:50:20.629Z,100570.02
2019-05-16T00:52:53.257Z,100575.31
2019-05-16T00:55:28.287Z,100566.14
2019-05-16T00:58:01.700Z,100556.91
2019-05-16T01:00:50.866Z,100564.78
2019-05-16T01:03:23.528Z,100556.56
2019-05-16T01:05:58.106Z,100555.32
2019-05-16T01:08:30.502Z,100556.70
2019-05-16T01:11:03.901Z,100557.61
2019-05-16T01:13:38.038Z,100551.52
2019-05-16T01:16:12.431Z,100550.58
2019-05-16T01:18:48.911Z,100543.66
2019-05-16T01:21:21.881Z,100550.65
2019-05-16T01:23:54.766Z,100543.67
2019-05-16T01:26:28.618Z,100546.41
2019-05-16T01:29:01.466Z,100545.10
2019-05-16T01:31:34.156Z,100544.23
2019-05-16T01:34:07.773Z,100539.89
2019-05-16T01:36:40.954Z,100547.38
2019-05-16T01:39:13.645Z,100543.94
2019-05-16T01:41:48.078Z,100542.31
2019-05-16T01:44:20.609Z,100540.65
2019-05-16T01:46:53.206Z,100531.53
2019-05-16T01:49:27.885Z,100533.28
2019-05-16T01:52:00.077Z,100529.77
2019-05-16T01:54:32.819Z,100525.05
2019-05-16T01:57:05.154Z,100522.01
2019-05-16T01:59:39.041Z,100515.47
2019-05-16T02:02:11.638Z,100517.26
2019-05-16T02:04:44.314Z,100516.05
2019-05-16T02:07:18.774Z,100507.79
2019-05-16T02:09:51.290Z,100507.00
2019-05-16T02:12:23.872Z,100507.84
2019-05-16T02:14:58.585Z,100505.23
2019-05-16T02:17:32.106Z,100501.83
2019-05-16T02:20:08.673Z,100499.32
2019-05-16T02:22:41.135Z,100501.11
2019-05-16T02:25:14.952Z,100501.58
2019-05-16T02:27:48.825Z,100498.47
2019-05-16T02:30:21.985Z,100498.53
2019-05-16T02:32:54.713Z,100497.23
2019-05-16T02:35:27.411Z,100501.22
2019-05-16T02:38:01.361Z,100504.33
2019-05-16T02:40:34.306Z,100501.34
2019-05-16T02:43:06.987Z,100499.61
2019-05-16T02:45:41.458Z,100497.83
2019-05-16T02:48:13.513Z,100494.00
2019-05-16T02:50:46.251Z,100497.94
2019-05-16T02:53:21.919Z,100495.31
2019-05-16T02:55:53.655Z,100498.00
2019-05-16T02:58:26.340Z,100490.59
2019-05-16T03:01:01.489Z,100479.26
2019-05-16T03:03:34.862Z,100485.83
2019-05-16T03:06:11.188Z,100480.58
2019-05-16T03:08:45.241Z,100474.06
2019-05-16T03:11:21.122Z,100478.89
2019-05-16T03:13:55.728Z,100474.13
2019-05-16T03:16:31.539Z,100471.55
2019-05-16T03:19:05.892Z,100468.09
2019-05-16T03:21:43.076Z,100469.50
2019-05-16T03:24:17.090Z,100473.48
2019-05-16T03:26:51.475Z,100473.91
2019-05-16T03:29:25.110Z,100474.84
2019-05-16T03:32:02.540Z,100478.32
2019-05-16T03:34:34.184Z,100478.00
2019-05-16T03:37:05.793Z,100471.44
2019-05-16T03:39:40.706Z,100471.05
2019-05-16T03:42:13.623Z,100466.28
2019-05-16T03:44:46.306Z,100466.33
2019-05-16T03:47:21.953Z,100461.12
2019-05-16T03:49:52.934Z,100458.08
2019-05-16T03:52:25.570Z,100456.38
2019-05-16T03:55:01.385Z,100462.95
2019-05-16T03:57:32.591Z,100463.84
2019-05-16T04:00:11.819Z,100465.20
2019-05-16T04:02:45.701Z,100468.30
2019-05-16T04:05:20.957Z,100466.61
2019-05-16T04:08:08.814Z,100466.19
2019-05-16T04:10:26.936Z,100468.39
2019-05-16T04:13:01.036Z,100467.97
2019-05-16T04:15:33.502Z,100456.56
2019-05-16T04:18:06.188Z,100456.56
2019-05-16T04:20:40.696Z,100456.14
2019-05-16T04:23:13.698Z,100454.88
2019-05-16T04:25:46.376Z,100451.02
2019-05-16T04:28:21.931Z,100450.59
2019-05-16T04:30:54.294Z,100444.91
2019-05-16T04:33:27.023Z,100449.74
2019-05-16T04:36:01.219Z,100448.90
2019-05-16T04:38:40.594Z,100448.13
2019-05-16T04:41:07.774Z,100448.13
2019-05-16T04:43:41.579Z,100450.25
2019-05-16T04:46:14.877Z,100446.39
2019-05-16T04:48:50.499Z,100446.89
2019-05-16T04:51:22.219Z,100447.74
2019-05-16T04:53:54.963Z,100439.89
2019-05-16T04:56:30.671Z,100440.31
2019-05-16T04:59:02.268Z,100440.70
2019-05-16T05:01:35.545Z,100447.28
2019-05-16T05:04:14.148Z,100446.89
2019-05-16T05:06:42.759Z,100444.26
2019-05-16T05:09:15.438Z,100445.61
2019-05-16T05:11:52.041Z,100446.47
2019-05-16T05:14:24.279Z,100446.97
2019-05-16T05:16:56.950Z,100448.75
2019-05-16T05:19:30.680Z,100447.43
2019-05-16T05:22:03.345Z,100453.97
2019-05-16T05:24:35.957Z,100461.00
2019-05-16T05:27:10.450Z,100446.97
2019-05-16T05:29:43.941Z,100453.93
2019-05-16T05:32:19.848Z,100450.45
2019-05-16T05:34:51.851Z,100451.34
2019-05-16T05:37:24.539Z,100458.84
2019-05-16T05:39:57.208Z,100452.27
2019-05-16T05:42:30.579Z,100455.33
2019-05-16T05:45:04.017Z,100455.79
2019-05-16T05:47:40.405Z,100456.22
2019-05-16T05:50:16.432Z,100457.56
2019-05-16T05:52:51.135Z,100456.29
2019-05-16T05:55:23.426Z,100457.14
2019-05-16T05:57:56.006Z,100456.25
2019-05-16T06:00:30.368Z,100455.36
2019-05-16T06:03:03.113Z,100453.66
2019-05-16T06:05:35.743Z,100458.45
2019-05-16T06:08:10.521Z,100462.52
2019-05-16T06:10:42.676Z,100466.47
2019-05-16T06:13:15.353Z,100462.95
2019-05-16T06:15:48.036Z,100459.95
2019-05-16T06:18:20.751Z,100463.95
2019-05-16T06:20:53.014Z,100457.86
2019-05-16T06:23:25.794Z,100459.67
2019-05-16T06:26:00.360Z,100459.28
2019-05-16T06:28:33.485Z,100455.41
2019-05-16T06:31:06.164Z,100456.42
2019-05-16T06:33:41.033Z,100455.56
2019-05-16T06:36:13.110Z,100445.15
2019-05-16T06:38:45.731Z,100448.64
2019-05-16T06:41:19.943Z,100448.73
2019-05-16T06:43:53.035Z,100438.73
2019-05-16T06:46:25.721Z,100432.19
2019-05-16T06:48:59.647Z,100427.96
2019-05-16T06:51:32.709Z,100427.99
2019-05-16T06:54:05.332Z,100435.12
2019-05-16T06:56:40.074Z,100435.12
2019-05-16T06:59:12.296Z,100431.17
2019-05-16T07:01:44.938Z,100433.41
2019-05-16T07:04:19.910Z,100428.19
2019-05-16T07:06:59.012Z,100430.80
2019-05-16T07:09:27.032Z,100435.64
2019-05-16T07:11:59.934Z,100435.23
2019-05-16T07:14:33.532Z,100443.14
2019-05-16T07:17:06.280Z,100436.57
2019-05-16T07:19:40.798Z,100433.45
2019-05-16T07:22:13.154Z,100429.98
2019-05-16T07:24:45.849Z,100433.07
2019-05-16T07:27:21.857Z,100434.44
2019-05-16T07:29:53.872Z,100428.28
2019-05-16T07:32:26.545Z,100422.13
2019-05-16T07:35:00.355Z,100420.83
2019-05-16T07:37:33.441Z,100418.64
2019-05-16T07:40:19.070Z,100419.48
2019-05-16T07:42:42.282Z,100426.55
2019-05-16T07:45:15.485Z,100429.59
2019-05-16T07:47:50.657Z,100426.55
2019-05-16T07:50:22.472Z,100430.91
2019-05-16T07:52:56.574Z,100419.91
2019-05-16T07:55:30.869Z,100418.61
2019-05-16T07:58:03.571Z,100416.42
2019-05-16T08:00:49.879Z,100420.84
2019-05-16T08:03:10.679Z,100410.31
2019-05-16T08:05:44.891Z,100419.09
2019-05-16T08:08:23.270Z,100420.36
2019-05-16T08:10:52.394Z,100425.66
2019-05-16T08:13:25.081Z,100421.27
2019-05-16T08:16:00.838Z,100421.28
2019-05-16T08:18:32.384Z,100420.86
2019-05-16T08:21:05.066Z,100421.75
2019-05-16T08:23:37.838Z,100419.58
2019-05-16T08:26:11.753Z,100426.64
2019-05-16T08:28:44.481Z,100431.05
2019-05-16T08:31:20.745Z,100431.55
2019-05-16T08:36:25.799Z,100439.45
2019-05-16T08:39:01.098Z,100433.30
2019-05-16T08:41:32.363Z,100446.88
2019-05-16T08:44:05.419Z,100445.98
2019-05-16T08:46:41.162Z,100452.55
2019-05-16T08:49:12.535Z,100454.31
2019-05-16T08:51:45.404Z,100460.46
2019-05-16T08:54:18.035Z,100460.03
2019-05-16T08:56:55.323Z,100467.03
2019-05-16T08:59:33.542Z,100462.66
2019-05-16T09:02:12.031Z,100470.58
2019-05-16T09:04:44.871Z,100468.31
2019-05-16T09:07:17.555Z,100468.75
2019-05-16T09:09:52.014Z,100469.20
2019-05-16T09:10:28.428Z,100431.99
2019-05-16T09:12:24.458Z,100467.02
2019-05-16T09:14:59.348Z,100464.80
2019-05-16T09:17:30.686Z,100466.09
2019-05-16T09:20:03.419Z,100468.37
2019-05-16T09:22:37.790Z,100474.08
2019-05-16T09:25:11.337Z,100472.33
2019-05-16T09:27:46.897Z,100474.95
2019-05-16T09:30:20.374Z,100474.07
2019-05-16T09:32:53.061Z,100472.71
2019-05-16T09:35:28.056Z,100478.72
2019-05-16T09:38:00.058Z,100480.36
2019-05-16T09:40:32.940Z,100485.53
2019-05-16T09:43:07.576Z,100487.58
2019-05-16T09:45:39.940Z,100485.78
2019-05-16T09:48:12.826Z,100487.53
2019-05-16T09:50:46.850Z,100490.55
2019-05-16T09:53:19.723Z,100496.19
2019-05-16T09:55:52.707Z,100480.86
2019-05-16T09:58:27.542Z,100475.62
2019-05-16T10:01:00.942Z,100479.22
2019-05-16T10:03:33.615Z,100478.91
2019-05-16T10:06:07.957Z,100478.95
2019-05-16T10:08:40.707Z,100473.77
2019-05-16T10:11:13.691Z,100472.07
2019-05-16T10:13:47.094Z,100472.97
2019-05-16T10:16:21.321Z,100473.87
2019-05-16T10:18:58.264Z,100469.77
2019-05-16T10:21:37.202Z,100471.97
2019-05-16T10:24:11.994Z,100473.70
2019-05-16T10:26:48.533Z,100480.69
2019-05-16T10:29:27.128Z,100478.99
2019-05-16T10:32:01.099Z,100485.19
2019-05-16T10:34:37.090Z,100476.46
2019-05-16T10:37:11.643Z,100484.91
2019-05-16T10:39:46.937Z,100481.81
2019-05-16T10:42:28.483Z,100483.99
2019-05-16T10:44:57.605Z,100479.14
2019-05-16T10:47:31.333Z,100475.65
2019-05-16T10:50:03.720Z,100473.91
2019-05-16T10:52:36.827Z,100476.06
2019-05-16T10:55:10.878Z,100472.91
2019-05-16T10:57:47.150Z,100472.98
2019-05-16T11:00:42.411Z,100475.97
2019-05-16T11:02:58.714Z,100471.56
2019-05-16T11:05:35.709Z,100478.69
2019-05-16T11:08:04.395Z,100476.95
2019-05-16T11:10:37.517Z,100477.34
2019-05-16T11:13:10.132Z,100478.30
2019-05-16T11:15:42.794Z,100480.90
2019-05-16T11:18:17.576Z,100480.48
2019-05-16T11:20:51.750Z,100484.95
2019-05-16T11:23:30.848Z,100487.21
2019-05-16T11:26:02.491Z,100491.17
2019-05-16T11:28:37.033Z,100486.29
2019-05-16T11:31:12.181Z,100492.41
2019-05-16T11:33:47.553Z,100499.47
2019-05-16T11:36:19.280Z,100506.48
2019-05-16T11:38:51.958Z,100506.56
2019-05-16T11:41:27.331Z,100509.16
2019-05-16T11:43:59.256Z,100504.75
2019-05-16T11:46:32.043Z,100503.96
2019-05-16T11:49:04.729Z,100509.16
2019-05-16T11:51:38.397Z,100507.86
2019-05-16T11:54:10.846Z,100507.91
2019-05-16T11:56:43.482Z,100514.55
2019-05-16T11:59:16.211Z,100512.87
2019-05-16T12:01:48.834Z,100515.97
2019-05-16T12:04:21.062Z,100519.11
2019-05-16T12:06:53.531Z,100511.48
2019-05-16T12:09:32.885Z,100513.83
2019-05-16T12:12:04.200Z,100510.77
2019-05-16T12:14:36.936Z,100508.58
2019-05-16T12:17:10.655Z,100509.45
2019-05-16T12:19:44.012Z,100509.91
2019-05-16T12:22:18.443Z,100505.08
2019-05-16T12:24:51.144Z,100502.42
2019-05-16T12:27:31.831Z,100498.48
2019-05-16T12:29:59.060Z,100509.50
2019-05-16T12:32:32.148Z,100507.26
2019-05-16T12:35:06.484Z,100503.72
2019-05-16T12:37:39.554Z,100504.15
2019-05-16T12:40:13.052Z,100501.10
2019-05-16T12:42:47.237Z,100502.41
2019-05-16T12:45:20.771Z,100498.45
2019-05-16T12:47:53.442Z,100501.52
2019-05-16T12:50:28.616Z,100497.56
2019-05-16T12:53:00.556Z,100498.88
2019-05-16T12:55:33.327Z,100497.13
2019-05-16T12:58:13.934Z,100495.80
2019-05-16T13:00:44.065Z,100491.87
2019-05-16T13:03:14.204Z,100490.12
2019-05-16T13:05:47.719Z,100496.27
2019-05-16T13:08:20.831Z,100488.35
2019-05-16T13:10:53.384Z,100487.89
2019-05-16T13:13:27.787Z,100490.50
2019-05-16T13:16:00.289Z,100484.34
2019-05-16T13:18:32.551Z,100490.07
2019-05-16T13:21:06.830Z,100488.31
2019-05-16T13:23:39.663Z,100486.97
2019-05-16T13:26:12.128Z,100487.82
2019-05-16T13:28:47.336Z,100483.92
2019-05-16T13:31:19.128Z,100486.09
2019-05-16T13:33:51.814Z,100480.83
2019-05-16T13:36:27.061Z,100479.09
2019-05-16T13:38:58.904Z,100487.88
2019-05-16T13:41:34.387Z,100477.78
2019-05-16T13:44:17.680Z,100469.85
2019-05-16T13:46:39.922Z,100474.69
2019-05-16T13:49:12.150Z,100467.63
2019-05-16T13:51:44.868Z,100472.44
2019-05-16T13:54:18.674Z,100477.73
2019-05-16T13:56:51.844Z,100473.77
2019-05-16T13:59:24.439Z,100480.81
2019-05-16T14:01:57.379Z,100486.49
2019-05-16T14:04:30.204Z,100481.61
2019-05-16T14:07:03.101Z,100477.66
2019-05-16T14:09:37.850Z,100481.55
2019-05-16T14:12:10.079Z,100480.64
2019-05-16T14:14:42.754Z,100478.99
2019-05-16T14:17:17.837Z,100480.34
2019-05-16T14:19:51.196Z,100479.48
2019-05-16T14:22:23.874Z,100483.05
2019-05-16T14:24:57.053Z,100486.16
2019-05-16T14:27:29.847Z,100487.04
2019-05-16T14:30:02.605Z,100491.00
2019-05-16T14:32:41.729Z,100490.99
2019-05-16T14:35:11.313Z,100487.45
2019-05-16T14:37:46.698Z,100484.83
2019-05-16T14:40:18.371Z,100483.06
2019-05-16T14:42:51.054Z,100479.97
2019-05-16T14:45:23.721Z,100478.22
2019-05-16T14:47:57.953Z,100479.50
2019-05-16T14:50:30.718Z,100476.42
2019-05-16T14:53:03.403Z,100476.36
2019-05-16T14:55:38.143Z,100472.42
2019-05-16T14:58:10.801Z,100474.61
2019-05-16T15:00:48.446Z,100478.56
2019-05-16T15:03:18.920Z,100482.08
2019-05-16T15:05:54.891Z,100480.75
2019-05-16T15:08:25.931Z,100482.97
2019-05-16T15:10:58.603Z,100481.20
2019-05-16T15:13:31.280Z,100479.86
2019-05-16T15:16:04.060Z,100477.14
2019-05-16T15:18:38.422Z,100475.83
2019-05-16T15:21:10.611Z,100476.31
2019-05-16T15:23:43.333Z,100482.55
2019-05-16T15:26:18.160Z,100483.39
2019-05-16T15:28:51.448Z,100480.31
2019-05-16T15:31:24.030Z,100486.10
2019-05-16T15:33:57.259Z,100483.02
2019-05-16T15:36:30.207Z,100477.72
2019-05-16T15:39:02.884Z,100482.62
2019-05-16T15:41:36.701Z,100484.40
2019-05-16T15:44:10.380Z,100487.48
2019-05-16T15:46:42.977Z,100498.91
2019-05-16T15:49:17.218Z,100494.50
2019-05-16T15:51:50.436Z,100490.97
2019-05-16T15:54:28.510Z,100486.55
2019-05-16T15:57:01.363Z,100494.92
2019-05-16T15:59:34.047Z,100495.80
2019-05-16T16:02:07.296Z,100493.62
2019-05-16T16:04:40.224Z,100491.41
2019-05-16T16:07:12.802Z,100487.42
2019-05-16T16:09:47.060Z,100493.61
2019-05-16T16:12:19.796Z,100491.42
2019-05-16T16:14:52.502Z,100492.74
2019-05-16T16:17:28.796Z,100492.74
2019-05-16T16:19:59.473Z,100494.05
2019-05-16T16:22:32.156Z,100495.81
2019-05-16T16:25:06.877Z,100490.55
2019-05-16T16:27:39.766Z,100494.05
2019-05-16T16:30:12.123Z,100498.91
2019-05-16T16:32:44.362Z,100502.43
2019-05-16T16:35:17.508Z,100501.98
2019-05-16T16:37:50.173Z,100498.45
2019-05-16T16:40:22.962Z,100502.38
2019-05-16T16:42:56.816Z,100502.83
2019-05-16T16:45:30.568Z,100509.81
2019-05-16T16:48:03.015Z,100516.90
2019-05-16T16:50:37.095Z,100517.73
2019-05-16T16:53:10.037Z,100519.92
2019-05-16T16:55:42.731Z,100522.56
2019-05-16T16:58:17.466Z,100514.67
2019-05-16T17:00:49.621Z,100515.52
2019-05-16T17:03:22.287Z,100513.74
2019-05-16T17:05:56.965Z,100506.27
2019-05-16T17:08:29.189Z,100511.09
2019-05-16T17:11:02.998Z,100508.47
2019-05-16T17:13:36.592Z,100505.39
2019-05-16T17:16:21.943Z,100504.95
2019-05-16T17:18:43.585Z,100513.28
2019-05-16T17:21:17.094Z,100508.39
2019-05-16T17:23:49.881Z,100507.08
2019-05-16T17:26:22.552Z,100512.78
2019-05-16T17:28:57.142Z,100506.61
2019-05-16T17:31:30.050Z,100508.80
2019-05-16T17:34:02.506Z,100511.00
2019-05-16T17:36:37.262Z,100509.22
2019-05-16T17:39:11.817Z,100510.97
2019-05-16T17:41:47.821Z,100517.09
2019-05-16T17:44:20.448Z,100523.69
2019-05-16T17:46:53.118Z,100519.28
2019-05-16T17:49:26.894Z,100524.99
2019-05-16T17:52:00.137Z,100526.73
2019-05-16T17:54:33.685Z,100526.28
2019-05-16T17:57:07.408Z,100528.91
2019-05-16T17:59:40.603Z,100527.53
2019-05-16T18:02:14.230Z,100522.67
2019-05-16T18:04:47.107Z,100529.29
2019-05-16T18:07:19.824Z,100523.12
2019-05-16T18:09:56.639Z,100521.80
2019-05-16T18:12:28.765Z,100526.61
2019-05-16T18:15:04.105Z,100523.09
2019-05-16T18:17:37.627Z,100522.22
2019-05-16T18:20:14.681Z,100523.97
2019-05-16T18:22:49.147Z,100527.50
2019-05-16T18:25:22.804Z,100521.31
2019-05-16T18:27:57.194Z,100518.23
2019-05-16T18:30:30.534Z,100532.27
2019-05-16T18:33:04.105Z,100530.95
2019-05-16T18:35:37.335Z,100534.43
2019-05-16T18:38:10.509Z,100533.55
2019-05-16T18:40:44.215Z,100537.02
2019-05-16T18:43:17.492Z,100538.36
2019-05-16T18:45:51.985Z,100537.91
2019-05-16T18:48:27.017Z,100540.54
2019-05-16T18:51:01.206Z,100544.95
2019-05-16T18:53:37.446Z,100542.27
2019-05-16T18:56:10.362Z,100533.45
2019-05-16T18:58:46.641Z,100539.14
2019-05-16T19:01:21.217Z,100547.09
2019-05-16T19:03:57.569Z,100546.19
2019-05-16T19:06:31.973Z,100554.56
2019-05-16T19:09:08.150Z,100558.08
2019-05-16T19:11:45.312Z,100557.67
2019-05-16T19:14:20.695Z,100558.16
2019-05-16T19:16:56.667Z,100551.08
2019-05-16T19:19:29.073Z,100556.36
2019-05-16T19:22:02.893Z,100554.56
2019-05-16T19:24:38.842Z,100560.73
2019-05-16T19:27:17.280Z,100552.38
2019-05-16T19:29:56.794Z,100562.03
2019-05-16T19:32:33.035Z,100551.95
2019-05-16T19:35:07.777Z,100554.61
2019-05-16T19:37:40.720Z,100549.31
2019-05-16T19:40:14.139Z,100549.27
2019-05-16T19:42:47.337Z,100551.84
2019-05-16T19:45:21.025Z,100552.73
2019-05-16T19:47:57.273Z,100545.25
2019-05-16T19:50:29.556Z,100550.98
2019-05-16T19:53:02.231Z,100539.55
2019-05-16T19:55:36.579Z,100535.17
2019-05-16T19:58:09.158Z,100532.06
2019-05-16T20:00:42.747Z,100532.94
2019-05-16T20:03:19.736Z,100541.73
2019-05-16T20:05:56.844Z,100536.89
2019-05-16T20:08:31.862Z,100536.03
2019-05-16T20:11:04.807Z,100535.17
2019-05-16T20:13:37.487Z,100536.52
2019-05-16T20:16:09.877Z,100536.92
2019-05-16T20:18:42.463Z,100531.63
2019-05-16T20:21:18.402Z,100538.55
2019-05-16T20:23:50.456Z,100539.84
2019-05-16T20:26:22.974Z,100537.64
2019-05-16T20:28:56.817Z,100530.16
2019-05-16T20:31:30.340Z,100536.75
2019-05-16T20:34:02.915Z,100529.70
2019-05-16T20:36:36.999Z,100528.79
2019-05-16T20:39:11.149Z,100529.28
2019-05-16T20:41:43.933Z,100517.88
2019-05-16T20:44:17.481Z,100521.40
2019-05-16T20:46:50.410Z,100525.37
2019-05-16T20:49:23.098Z,100524.95
2019-05-16T20:51:57.837Z,100528.41
2019-05-16T20:54:29.990Z,100531.05
2019-05-16T20:57:02.664Z,100524.87
2019-05-16T20:59:35.340Z,100521.32
2019-05-16T21:02:07.607Z,100529.63
2019-05-16T21:04:40.290Z,100528.27
2019-05-16T21:07:12.867Z,100530.84
2019-05-16T21:09:45.551Z,100528.15
2019-05-16T21:12:19.144Z,100525.98
2019-05-16T21:14:51.876Z,100521.56
2019-05-16T21:17:26.567Z,100524.63
2019-05-16T21:19:58.822Z,100523.34
2019-05-16T21:22:31.395Z,100521.63
2019-05-16T21:25:04.077Z,100518.13
2019-05-16T21:27:37.983Z,100519.48
2019-05-16T21:30:11.437Z,100515.47
2019-05-16T21:32:47.182Z,100509.26
2019-05-16T21:35:20.125Z,100515.34
2019-05-16T21:37:52.797Z,100506.56
2019-05-16T21:40:26.511Z,100506.56
2019-05-16T21:42:59.383Z,100504.39
2019-05-16T21:45:32.063Z,100503.08
2019-05-16T21:48:04.639Z,100504.81
2019-05-16T21:50:36.971Z,100503.08
2019-05-16T21:53:09.693Z,100508.30
2019-05-16T21:55:42.374Z,100504.78
2019-05-16T21:58:14.942Z,100499.95
2019-05-16T22:00:51.629Z,100494.66
2019-05-16T22:03:27.009Z,100494.69
2019-05-16T22:05:59.952Z,100495.11
2019-05-16T22:08:33.751Z,100495.97
2019-05-16T22:11:07.970Z,100492.02
2019-05-16T22:13:40.961Z,100489.42
2019-05-16T22:16:13.635Z,100490.77
2019-05-16T22:18:47.347Z,100488.99
2019-05-16T22:21:20.530Z,100489.81
2019-05-16T22:23:53.213Z,100493.80
2019-05-16T22:26:27.075Z,100495.94
2019-05-16T22:28:59.953Z,100491.50
2019-05-16T22:31:34.038Z,100491.53
2019-05-16T22:34:07.633Z,100486.23
2019-05-16T22:36:41.116Z,100488.01
2019-05-16T22:39:13.783Z,100495.91
2019-05-16T22:41:46.621Z,100485.87
2019-05-16T22:44:19.454Z,100496.39
2019-05-16T22:46:51.749Z,100489.39
2019-05-16T22:49:24.708Z,100496.80
2019-05-16T22:51:57.330Z,100487.58
2019-05-16T22:54:29.967Z,100481.78
2019-05-16T22:57:03.062Z,100493.17
2019-05-16T22:59:35.731Z,100498.44
2019-05-16T23:02:11.918Z,100497.58
2019-05-16T23:04:44.378Z,100500.67
2019-05-16T23:07:17.254Z,100494.48
2019-05-16T23:09:50.503Z,100491.81
2019-05-16T23:12:23.186Z,100488.73
2019-05-16T23:14:57.003Z,100493.49
2019-05-16T23:17:29.769Z,100487.77
2019-05-16T23:20:06.256Z,100490.36
2019-05-16T23:22:42.816Z,100489.44
2019-05-16T23:25:17.329Z,100497.33
2019-05-16T23:27:54.013Z,100492.99
2019-05-16T23:30:31.688Z,100488.63
2019-05-16T23:33:07.123Z,100488.19
2019-05-16T23:35:41.495Z,100491.28
2019-05-16T23:38:19.387Z,100489.58
2019-05-16T23:40:49.007Z,100485.66
2019-05-16T23:43:24.928Z,100481.75
2019-05-16T23:45:59.139Z,100475.64
2019-05-16T23:48:33.257Z,100476.06
2019-05-16T23:51:09.529Z,100477.37
2019-05-16T23:53:43.407Z,100467.73
2019-05-16T23:56:17.681Z,100463.36
2019-05-16T23:58:52.168Z,100462.94
